Time;durP1;ratioP1;P1;durP2;ratioP2;P2;SDS_P1;SDS_P2;PMS_P1;PMS_P2;Temp;Humidity;BMP_temperature;BMP_pressure;BME280_temperature;BME280_humidity;BME280_pressure;Samples;Min_cycle;Max_cycle;Signal;HPM_P1;HPM_P2
2023/05/13 00:01:49;;;;;;;5.88;3.05;;;;;;;;;;5037096;28;20228;-69
2023/05/13 00:04:15;;;;;;;6.90;3.13;;;;;;;;;;5036073;28;20065;-69
2023/05/13 00:06:42;;;;;;;5.80;3.00;;;;;;;;;;5049594;28;20148;-68
2023/05/13 00:09:09;;;;;;;5.75;2.90;;;;;;;;;;5034183;28;20053;-68
2023/05/13 00:11:37;;;;;;;6.70;3.00;;;;;;;;;;5042999;28;20071;-67
2023/05/13 00:14:03;;;;;;;6.53;2.80;;;;;;;;;;5020940;28;20107;-67
2023/05/13 00:16:30;;;;;;;6.50;3.10;;;;;;;;;;5020905;28;20072;-67
2023/05/13 00:18:56;;;;;;;5.57;2.80;;;;;;;;;;5019641;28;20080;-68
2023/05/13 00:21:23;;;;;;;5.07;2.55;;;;;;;;;;5027866;28;20049;-68
2023/05/13 00:23:49;;;;;;;6.63;2.90;;;;;;;;;;5020587;28;20049;-67
2023/05/13 00:26:16;;;;;;;6.40;2.67;;;;;;;;;;5023230;28;20053;-68
2023/05/13 00:28:44;;;;;;;5.93;2.97;;;;;;;;;;5024138;28;20044;-69
2023/05/13 00:31:11;;;;;;;5.95;2.80;;;;;;;;;;5019924;28;20068;-68
2023/05/13 00:33:37;;;;;;;4.47;2.50;;;;;;;;;;5014849;28;20155;-69
2023/05/13 00:36:04;;;;;;;7.25;2.67;;;;;;;;;;5024471;28;20123;-68
2023/05/13 00:38:31;;;;;;;5.10;2.50;;;;;;;;;;5021116;28;20120;-66
2023/05/13 00:40:58;;;;;;;5.65;2.70;;;;;;;;;;5019542;28;20060;-67
2023/05/13 00:43:24;;;;;;;5.95;2.67;;;;;;;;;;5020118;28;20076;-68
2023/05/13 00:45:52;;;;;;;5.78;2.53;;;;;;;;;;5022081;28;20100;-67
2023/05/13 00:48:18;;;;;;;6.10;2.83;;;;;;;;;;5019723;28;20200;-68
2023/05/13 00:50:45;;;;;;;4.85;2.80;;;;;;;;;;5031125;28;20425;-66
2023/05/13 00:53:12;;;;;;;7.30;3.00;;;;;;;;;;5040671;28;20121;-70
2023/05/13 00:55:41;;;;;;;5.57;2.70;;;;;;;;;;5014251;28;20053;-67
2023/05/13 00:58:07;;;;;;;5.93;2.85;;;;;;;;;;5022333;28;20107;-68
2023/05/13 01:00:37;;;;;;;5.97;2.70;;;;;;;;;;5015798;28;20045;-67
2023/05/13 01:03:11;;;;;;;5.30;2.63;;;;;;;;;;5042975;28;20057;-69
2023/05/13 01:05:41;;;;;;;5.13;2.45;;;;;;;;;;5032896;28;20057;-67
2023/05/13 01:08:20;;;;;;;5.03;2.63;;;;;;;;;;5026740;28;20156;-67
2023/05/13 01:10:48;;;;;;;4.53;2.65;;;;;;;;;;5031201;28;20132;-69
2023/05/13 01:13:17;;;;;;;5.65;2.75;;;;;;;;;;5039074;28;20139;-68
2023/05/13 01:15:45;;;;;;;5.82;2.53;;;;;;;;;;5020479;28;20049;-67
2023/05/13 01:18:15;;;;;;;6.05;2.90;;;;;;;;;;5043284;28;20170;-68
2023/05/13 01:20:42;;;;;;;7.65;3.00;;;;;;;;;;5036123;28;20164;-67
2023/05/13 01:23:10;;;;;;;4.78;2.40;;;;;;;;;;5025745;28;20055;-67
2023/05/13 01:25:37;;;;;;;7.72;2.97;;;;;;;;;;5014880;28;21523;-68
2023/05/13 01:28:03;;;;;;;5.05;2.72;;;;;;;;;;5043947;28;20135;-67
2023/05/13 01:30:30;;;;;;;6.05;2.78;;;;;;;;;;5036606;28;20037;-66
2023/05/13 01:32:56;;;;;;;5.93;2.83;;;;;;;;;;5043886;28;20079;-68
2023/05/13 01:35:23;;;;;;;6.13;2.85;;;;;;;;;;5013348;28;20141;-67
2023/05/13 01:37:50;;;;;;;4.97;2.95;;;;;;;;;;5043561;28;20059;-67
2023/05/13 01:40:18;;;;;;;4.68;2.55;;;;;;;;;;5020599;28;20162;-67
2023/05/13 01:42:44;;;;;;;8.55;3.15;;;;;;;;;;5041567;28;20124;-68
2023/05/13 01:45:11;;;;;;;6.18;2.55;;;;;;;;;;5022260;28;20049;-67
2023/05/13 01:47:38;;;;;;;5.35;3.00;;;;;;;;;;5039329;28;21041;-66
2023/05/13 01:50:05;;;;;;;6.50;2.95;;;;;;;;;;5021549;28;20063;-68
2023/05/13 01:52:31;;;;;;;4.97;2.88;;;;;;;;;;5039096;28;20045;-67
2023/05/13 01:54:59;;;;;;;4.63;2.58;;;;;;;;;;5043885;28;20091;-68
2023/05/13 01:57:27;;;;;;;4.65;2.47;;;;;;;;;;5031264;28;20057;-68
2023/05/13 01:59:54;;;;;;;7.80;2.93;;;;;;;;;;5030993;28;20140;-67
2023/05/13 02:02:20;;;;;;;6.35;2.88;;;;;;;;;;5037464;28;20064;-67
2023/05/13 02:04:46;;;;;;;6.78;2.78;;;;;;;;;;4984248;28;20120;-67
2023/05/13 02:07:13;;;;;;;7.03;3.10;;;;;;;;;;5027319;28;20130;-68
2023/05/13 02:09:39;;;;;;;6.68;2.83;;;;;;;;;;5052411;28;20144;-68
2023/05/13 02:12:07;;;;;;;5.55;3.00;;;;;;;;;;5050815;28;20156;-69
2023/05/13 02:14:34;;;;;;;5.18;2.78;;;;;;;;;;5014214;28;20059;-69
2023/05/13 02:17:02;;;;;;;5.33;2.70;;;;;;;;;;5036990;28;20111;-66
2023/05/13 02:19:28;;;;;;;5.95;3.08;;;;;;;;;;5041806;28;20052;-66
2023/05/13 02:21:55;;;;;;;5.60;2.75;;;;;;;;;;5013341;28;20056;-68
2023/05/13 02:24:21;;;;;;;6.35;3.08;;;;;;;;;;5018489;28;20075;-67
2023/05/13 02:26:47;;;;;;;5.60;2.78;;;;;;;;;;5035215;28;20195;-68
2023/05/13 02:29:14;;;;;;;6.57;3.03;;;;;;;;;;5038557;28;20063;-66
2023/05/13 02:31:42;;;;;;;7.15;3.17;;;;;;;;;;5042564;28;20088;-67
2023/05/13 02:34:09;;;;;;;8.77;2.85;;;;;;;;;;5026609;28;20060;-66
2023/05/13 02:36:35;;;;;;;5.93;3.00;;;;;;;;;;5017445;28;20064;-67
2023/05/13 02:39:02;;;;;;;5.45;2.88;;;;;;;;;;5017570;28;20118;-67
2023/05/13 02:41:28;;;;;;;6.90;3.15;;;;;;;;;;5023941;28;20057;-68
2023/05/13 02:43:57;;;;;;;5.82;2.90;;;;;;;;;;5018255;28;20056;-67
2023/05/13 02:46:24;;;;;;;5.47;2.83;;;;;;;;;;5019249;28;20079;-67
2023/05/13 02:48:52;;;;;;;7.80;3.40;;;;;;;;;;5014207;28;21469;-67
2023/05/13 02:51:18;;;;;;;7.75;3.08;;;;;;;;;;5041429;28;20056;-66
2023/05/13 02:53:45;;;;;;;5.88;2.92;;;;;;;;;;5037464;28;20057;-66
2023/05/13 02:56:15;;;;;;;5.70;3.25;;;;;;;;;;5020827;28;20061;-69
2023/05/13 02:58:42;;;;;;;5.13;2.92;;;;;;;;;;5011600;28;20150;-67
2023/05/13 03:01:08;;;;;;;5.28;2.92;;;;;;;;;;5040641;28;20061;-68
2023/05/13 03:03:34;;;;;;;5.15;3.10;;;;;;;;;;5020655;28;20128;-67
2023/05/13 03:06:02;;;;;;;5.30;2.88;;;;;;;;;;5025512;28;20061;-66
2023/05/13 03:08:29;;;;;;;6.88;3.00;;;;;;;;;;5040327;28;20079;-67
2023/05/13 03:10:55;;;;;;;5.32;3.13;;;;;;;;;;5020510;28;20117;-67
2023/05/13 03:13:22;;;;;;;6.28;3.05;;;;;;;;;;5019103;28;20122;-66
2023/05/13 03:15:50;;;;;;;5.55;2.95;;;;;;;;;;5007122;28;20057;-67
2023/05/13 03:18:17;;;;;;;6.20;3.33;;;;;;;;;;5041636;28;20092;-68
2023/05/13 03:20:43;;;;;;;6.25;3.10;;;;;;;;;;5012637;28;20091;-67
2023/05/13 03:23:11;;;;;;;8.25;3.50;;;;;;;;;;5041078;28;20045;-66
2023/05/13 03:25:37;;;;;;;6.37;3.23;;;;;;;;;;5016508;28;20049;-67
2023/05/13 03:28:05;;;;;;;6.93;3.28;;;;;;;;;;5023592;28;20056;-69
2023/05/13 03:30:32;;;;;;;5.95;3.47;;;;;;;;;;5032869;28;20113;-67
2023/05/13 03:32:58;;;;;;;7.18;3.72;;;;;;;;;;5021815;28;20136;-68
2023/05/13 03:35:25;;;;;;;6.15;3.42;;;;;;;;;;5007792;28;20072;-69
2023/05/13 03:37:51;;;;;;;6.72;3.30;;;;;;;;;;5021966;28;20057;-67
2023/05/13 03:40:20;;;;;;;8.38;3.67;;;;;;;;;;5018227;28;20064;-69
2023/05/13 03:42:46;;;;;;;6.95;3.65;;;;;;;;;;5033236;28;20487;-67
2023/05/13 03:45:16;;;;;;;8.82;3.85;;;;;;;;;;5006714;28;20139;-69
2023/05/13 03:47:42;;;;;;;12.10;3.72;;;;;;;;;;5040970;28;20064;-67
2023/05/13 03:50:11;;;;;;;8.43;4.05;;;;;;;;;;5043913;28;20129;-67
2023/05/13 03:52:38;;;;;;;6.50;3.40;;;;;;;;;;5038429;28;20057;-67
2023/05/13 03:55:07;;;;;;;11.32;3.72;;;;;;;;;;5031043;28;20056;-69
2023/05/13 03:57:35;;;;;;;8.35;3.83;;;;;;;;;;5026113;28;20057;-69
2023/05/13 04:00:02;;;;;;;7.82;3.47;;;;;;;;;;5045898;28;20059;-67
2023/05/13 04:02:28;;;;;;;6.00;3.38;;;;;;;;;;5016893;28;20048;-69
2023/05/13 04:04:55;;;;;;;6.90;3.80;;;;;;;;;;5040030;28;20106;-67
2023/05/13 04:07:21;;;;;;;7.85;3.85;;;;;;;;;;5040051;28;20057;-68
2023/05/13 04:09:48;;;;;;;7.43;3.85;;;;;;;;;;5041059;28;20044;-67
2023/05/13 04:12:16;;;;;;;8.90;3.80;;;;;;;;;;5029795;28;20057;-68
2023/05/13 04:14:43;;;;;;;;;;;;;;;;;;5038614;28;20044;-68
2023/05/13 04:17:12;;;;;;;7.43;3.83;;;;;;;;;;5020774;28;19948;-69
2023/05/13 04:19:38;;;;;;;8.23;3.95;;;;;;;;;;5024170;28;20147;-68
2023/05/13 04:22:05;;;;;;;9.27;4.30;;;;;;;;;;5038822;28;20140;-69
2023/05/13 04:24:31;;;;;;;9.35;3.88;;;;;;;;;;5006129;28;20053;-69
2023/05/13 04:26:57;;;;;;;9.13;4.15;;;;;;;;;;5040246;28;20051;-68
2023/05/13 04:29:24;;;;;;;7.90;4.32;;;;;;;;;;5043406;28;20067;-69
2023/05/13 04:31:53;;;;;;;10.73;4.47;;;;;;;;;;5024357;28;20056;-66
2023/05/13 04:34:21;;;;;;;7.80;3.92;;;;;;;;;;4989903;28;20071;-67
2023/05/13 04:36:48;;;;;;;8.48;4.38;;;;;;;;;;5025878;28;20091;-69
2023/05/13 04:39:15;;;;;;;8.65;4.20;;;;;;;;;;5021665;28;20049;-69
2023/05/13 04:41:41;;;;;;;7.40;4.22;;;;;;;;;;5043056;28;20069;-67
2023/05/13 04:44:08;;;;;;;8.38;4.53;;;;;;;;;;5010693;28;20053;-67
2023/05/13 04:46:36;;;;;;;8.63;4.28;;;;;;;;;;5017900;28;20053;-67
2023/05/13 04:49:04;;;;;;;8.43;4.20;;;;;;;;;;5040966;28;20063;-67
2023/05/13 04:51:32;;;;;;;8.57;4.70;;;;;;;;;;5043740;28;20061;-68
2023/05/13 04:53:59;;;;;;;8.20;4.50;;;;;;;;;;5040094;28;20115;-68
2023/05/13 04:56:30;;;;;;;7.22;4.22;;;;;;;;;;5021425;28;20306;-66
2023/05/13 04:58:56;;;;;;;7.18;4.50;;;;;;;;;;5039084;28;20072;-67
2023/05/13 05:01:23;;;;;;;8.20;4.68;;;;;;;;;;5034674;28;20062;-67
2023/05/13 05:03:49;;;;;;;8.98;4.75;;;;;;;;;;5000161;28;20061;-68
2023/05/13 05:06:18;;;;;;;7.43;4.28;;;;;;;;;;4993157;28;20108;-66
2023/05/13 05:08:46;;;;;;;8.48;4.53;;;;;;;;;;5006503;28;20057;-68
2023/05/13 05:11:12;;;;;;;7.68;4.05;;;;;;;;;;5004803;28;20115;-67
2023/05/13 05:13:38;;;;;;;8.73;4.35;;;;;;;;;;5014523;28;20149;-67
2023/05/13 05:16:05;;;;;;;8.35;4.53;;;;;;;;;;5019253;28;20054;-68
2023/05/13 05:18:39;;;;;;;8.88;4.70;;;;;;;;;;5002118;28;20064;-69
2023/05/13 05:21:06;;;;;;;8.88;4.80;;;;;;;;;;5001297;28;20077;-69
2023/05/13 05:23:33;;;;;;;11.65;5.40;;;;;;;;;;5004303;28;20061;-66
2023/05/13 05:26:02;;;;;;;9.98;4.57;;;;;;;;;;4964380;28;20079;-67
2023/05/13 05:28:31;;;;;;;10.48;4.97;;;;;;;;;;5002518;28;20060;-69
2023/05/13 05:31:04;;;;;;;10.18;5.35;;;;;;;;;;5018590;28;20057;-69
2023/05/13 05:33:31;;;;;;;8.02;4.50;;;;;;;;;;5022641;28;20057;-66
2023/05/13 05:35:59;;;;;;;8.98;4.90;;;;;;;;;;4987770;28;20118;-67
2023/05/13 05:38:32;;;;;;;10.93;5.32;;;;;;;;;;5020323;28;20050;-68
2023/05/13 05:40:58;;;;;;;9.52;5.13;;;;;;;;;;5019441;28;20139;-67
2023/05/13 05:43:26;;;;;;;9.32;5.32;;;;;;;;;;5022507;28;20059;-68
2023/05/13 05:45:52;;;;;;;10.27;5.15;;;;;;;;;;4997437;28;20071;-69
2023/05/13 05:48:19;;;;;;;8.55;4.90;;;;;;;;;;5004950;28;20118;-69
2023/05/13 05:50:45;;;;;;;9.98;5.35;;;;;;;;;;4994067;28;20076;-66
2023/05/13 05:53:13;;;;;;;8.25;4.90;;;;;;;;;;5004927;28;20049;-66
2023/05/13 05:55:39;;;;;;;8.70;5.18;;;;;;;;;;5015250;28;20053;-68
2023/05/13 05:58:06;;;;;;;8.00;4.90;;;;;;;;;;5018840;28;20119;-68
2023/05/13 06:00:34;;;;;;;12.23;5.20;;;;;;;;;;5023564;28;20127;-69
2023/05/13 06:03:00;;;;;;;8.77;5.20;;;;;;;;;;5003728;28;20165;-68
2023/05/13 06:05:27;;;;;;;9.18;5.40;;;;;;;;;;4981793;28;20388;-68
2023/05/13 06:07:53;;;;;;;9.13;5.13;;;;;;;;;;4994747;28;20140;-69
2023/05/13 06:10:23;;;;;;;8.15;4.85;;;;;;;;;;5018079;28;20124;-68
2023/05/13 06:12:51;;;;;;;9.65;4.90;;;;;;;;;;4977724;28;20105;-67
2023/05/13 06:15:17;;;;;;;8.98;4.82;;;;;;;;;;4976096;28;20129;-67
2023/05/13 06:17:48;;;;;;;10.73;5.53;;;;;;;;;;5010791;28;20077;-67
2023/05/13 06:20:14;;;;;;;13.32;5.57;;;;;;;;;;5027073;28;20128;-66
2023/05/13 06:22:41;;;;;;;11.52;5.40;;;;;;;;;;4997684;28;20096;-68
2023/05/13 06:25:12;;;;;;;13.13;6.03;;;;;;;;;;4989547;28;20053;-69
2023/05/13 06:27:39;;;;;;;11.32;5.60;;;;;;;;;;5016670;28;20069;-67
2023/05/13 06:30:06;;;;;;;10.82;5.50;;;;;;;;;;5020684;28;20061;-68
2023/05/13 06:32:33;;;;;;;10.40;5.85;;;;;;;;;;5007605;28;20058;-68
2023/05/13 06:35:00;;;;;;;13.02;5.30;;;;;;;;;;4957623;28;20125;-66
2023/05/13 06:37:27;;;;;;;9.67;5.37;;;;;;;;;;4985531;28;20054;-68
2023/05/13 06:39:57;;;;;;;10.50;5.32;;;;;;;;;;5008404;28;20077;-67
2023/05/13 06:42:23;;;;;;;11.15;5.70;;;;;;;;;;4997270;28;20057;-67
2023/05/13 06:44:50;;;;;;;11.65;5.57;;;;;;;;;;4962855;28;21957;-67
2023/05/13 06:47:16;;;;;;;10.10;5.35;;;;;;;;;;5017125;28;20065;-68
2023/05/13 06:49:43;;;;;;;11.23;5.30;;;;;;;;;;5002631;28;20071;-68
2023/05/13 06:52:11;;;;;;;12.25;5.65;;;;;;;;;;5020013;28;20186;-68
2023/05/13 06:54:39;;;;;;;10.10;5.15;;;;;;;;;;4973682;28;20062;-68
2023/05/13 06:57:06;;;;;;;9.65;5.55;;;;;;;;;;4983669;28;20056;-69
2023/05/13 06:59:35;;;;;;;10.27;5.68;;;;;;;;;;4998726;28;20072;-70
2023/05/13 07:02:01;;;;;;;12.48;6.22;;;;;;;;;;4985175;28;20063;-67
2023/05/13 07:04:30;;;;;;;11.45;6.13;;;;;;;;;;4976970;28;20042;-66
2023/05/13 07:06:57;;;;;;;9.98;6.00;;;;;;;;;;4989079;28;20086;-68
2023/05/13 07:09:27;;;;;;;9.55;5.60;;;;;;;;;;5001745;28;20109;-67
2023/05/13 07:11:53;;;;;;;11.10;5.60;;;;;;;;;;4987225;28;20045;-67
2023/05/13 07:14:20;;;;;;;12.10;5.32;;;;;;;;;;4979999;28;20333;-67
2023/05/13 07:16:49;;;;;;;10.68;6.13;;;;;;;;;;4978287;28;20085;-70
2023/05/13 07:19:16;;;;;;;9.65;5.78;;;;;;;;;;5000374;28;20153;-68
2023/05/13 07:21:42;;;;;;;10.02;5.53;;;;;;;;;;5006195;28;20058;-67
2023/05/13 07:24:09;;;;;;;10.85;5.72;;;;;;;;;;4987142;28;20129;-68
2023/05/13 07:26:37;;;;;;;10.30;5.13;;;;;;;;;;4945804;28;20054;-69
2023/05/13 07:29:04;;;;;;;;;;;;;;;;;;5005053;28;20050;-68
2023/05/13 07:31:30;;;;;;;9.82;5.45;;;;;;;;;;5009351;28;19977;-69
2023/05/13 07:33:57;;;;;;;10.23;5.80;;;;;;;;;;4991071;28;20069;-66
2023/05/13 07:36:23;;;;;;;9.90;5.75;;;;;;;;;;4970470;28;20065;-67
2023/05/13 07:38:50;;;;;;;9.00;5.15;;;;;;;;;;5006961;28;20065;-66
2023/05/13 07:41:16;;;;;;;10.95;5.65;;;;;;;;;;4986822;28;20150;-66
2023/05/13 07:43:44;;;;;;;9.52;5.05;;;;;;;;;;4989305;28;20060;-66
2023/05/13 07:46:13;;;;;;;9.83;5.50;;;;;;;;;;4983286;28;20105;-67
2023/05/13 07:48:43;;;;;;;10.45;5.40;;;;;;;;;;4983138;28;20366;-67
2023/05/13 07:51:09;;;;;;;10.90;5.78;;;;;;;;;;4989173;28;20065;-70
2023/05/13 07:53:36;;;;;;;9.40;5.63;;;;;;;;;;4993253;28;20054;-69
2023/05/13 07:56:03;;;;;;;12.25;5.80;;;;;;;;;;4990659;28;20125;-69
2023/05/13 07:58:31;;;;;;;12.95;5.55;;;;;;;;;;4988291;28;20054;-67
2023/05/13 08:00:59;;;;;;;10.85;5.53;;;;;;;;;;5008812;28;20071;-68
2023/05/13 08:03:25;;;;;;;11.60;5.17;;;;;;;;;;5008948;28;20060;-67
2023/05/13 08:05:52;;;;;;;10.90;5.50;;;;;;;;;;4976671;28;20126;-71
2023/05/13 08:08:25;;;;;;;9.77;5.65;;;;;;;;;;5028441;28;20123;-69
2023/05/13 08:10:54;;;;;;;8.65;5.30;;;;;;;;;;5016801;28;20065;-70
2023/05/13 08:13:21;;;;;;;12.75;5.43;;;;;;;;;;5026109;28;20128;-66
2023/05/13 08:15:47;;;;;;;9.32;5.18;;;;;;;;;;5015624;28;20176;-69
2023/05/13 08:18:15;;;;;;;8.13;5.28;;;;;;;;;;5004644;28;20057;-68
2023/05/13 08:20:42;;;;;;;9.93;5.10;;;;;;;;;;4998104;28;20061;-66
2023/05/13 08:23:08;;;;;;;11.75;5.80;;;;;;;;;;5020929;28;20084;-70
2023/05/13 08:25:35;;;;;;;9.95;5.32;;;;;;;;;;5003193;28;20053;-67
2023/05/13 08:28:02;;;;;;;11.23;5.40;;;;;;;;;;5021097;28;20111;-70
2023/05/13 08:30:28;;;;;;;12.18;5.50;;;;;;;;;;5020588;28;20156;-71
2023/05/13 08:32:55;;;;;;;10.15;5.15;;;;;;;;;;5016953;28;20081;-69
2023/05/13 08:35:22;;;;;;;8.88;4.80;;;;;;;;;;4956527;28;20093;-72
2023/05/13 08:37:49;;;;;;;9.60;5.50;;;;;;;;;;5008778;28;20103;-71
2023/05/13 08:40:15;;;;;;;11.20;5.82;;;;;;;;;;5005860;28;20303;-71
2023/05/13 08:42:43;;;;;;;10.38;5.03;;;;;;;;;;5011261;28;20081;-68
2023/05/13 08:45:10;;;;;;;11.77;5.28;;;;;;;;;;5020858;28;20057;-68
2023/05/13 08:47:40;;;;;;;8.40;4.45;;;;;;;;;;5020423;28;20056;-68
2023/05/13 08:50:10;;;;;;;9.52;5.20;;;;;;;;;;5022441;28;20084;-69
2023/05/13 08:52:38;;;;;;;8.95;5.25;;;;;;;;;;4996141;28;20053;-69
2023/05/13 08:55:08;;;;;;;8.35;5.07;;;;;;;;;;4981029;28;20064;-69
2023/05/13 08:57:34;;;;;;;9.90;5.13;;;;;;;;;;5008546;28;20057;-71
2023/05/13 09:00:01;;;;;;;10.85;5.35;;;;;;;;;;5022006;28;20054;-68
2023/05/13 09:02:29;;;;;;;9.98;5.63;;;;;;;;;;5003712;28;20125;-69
2023/05/13 09:04:58;;;;;;;11.48;4.95;;;;;;;;;;4999035;28;20060;-68
2023/05/13 09:07:25;;;;;;;14.02;5.30;;;;;;;;;;5042859;28;20049;-69
2023/05/13 09:09:53;;;;;;;10.10;5.32;;;;;;;;;;5020628;28;20053;-68
2023/05/13 09:12:38;;;;;;;8.77;4.85;;;;;;;;;;5022310;28;20058;-65
2023/05/13 09:15:09;;;;;;;7.90;4.55;;;;;;;;;;4999552;28;20063;-71
2023/05/13 09:17:37;;;;;;;10.35;4.65;;;;;;;;;;5020726;28;20061;-68
2023/05/13 09:20:14;;;;;;;9.93;4.70;;;;;;;;;;5002363;28;20057;-67
2023/05/13 09:22:41;;;;;;;12.00;4.78;;;;;;;;;;4999286;28;20231;-66
2023/05/13 09:25:11;;;;;;;9.52;4.95;;;;;;;;;;5015970;28;20053;-72
2023/05/13 09:27:38;;;;;;;10.27;4.43;;;;;;;;;;5027280;28;20166;-69
2023/05/13 09:30:06;;;;;;;7.37;4.27;;;;;;;;;;5017862;28;20131;-68
2023/05/13 09:32:32;;;;;;;9.35;4.88;;;;;;;;;;4999452;28;20049;-79
2023/05/13 09:35:08;;;;;;;9.35;5.45;;;;;;;;;;4960558;28;20058;-72
2023/05/13 09:37:35;;;;;;;11.10;5.65;;;;;;;;;;4966203;28;20120;-69
2023/05/13 09:40:02;;;;;;;9.38;5.55;;;;;;;;;;5005965;28;20041;-72
2023/05/13 09:42:31;;;;;;;9.27;4.70;;;;;;;;;;5004414;28;20069;-71
2023/05/13 09:45:04;;;;;;;9.35;4.75;;;;;;;;;;4957205;28;20053;-69
2023/05/13 09:47:31;;;;;;;8.55;4.93;;;;;;;;;;4940746;28;20058;-67
2023/05/13 09:49:57;;;;;;;9.82;4.63;;;;;;;;;;4977583;28;20050;-70
2023/05/13 09:52:24;;;;;;;7.75;4.32;;;;;;;;;;4975456;28;20153;-71
2023/05/13 09:54:50;;;;;;;9.50;4.72;;;;;;;;;;4976309;28;20115;-66
2023/05/13 09:57:17;;;;;;;9.50;4.75;;;;;;;;;;5016638;28;20053;-71
2023/05/13 09:59:45;;;;;;;8.05;4.15;;;;;;;;;;5020514;28;20057;-70
2023/05/13 10:02:15;;;;;;;8.25;3.90;;;;;;;;;;5017861;28;20156;-71
2023/05/13 10:04:44;;;;;;;8.88;4.00;;;;;;;;;;5018716;28;20251;-70
2023/05/13 10:07:11;;;;;;;10.43;3.85;;;;;;;;;;4980241;28;20053;-70
2023/05/13 10:09:38;;;;;;;8.57;3.90;;;;;;;;;;5000902;28;20053;-69
2023/05/13 10:12:07;;;;;;;7.43;4.50;;;;;;;;;;4996300;28;20073;-68
2023/05/13 10:14:33;;;;;;;7.20;3.58;;;;;;;;;;5014101;28;20068;-71
2023/05/13 10:17:01;;;;;;;8.13;3.90;;;;;;;;;;4998824;28;20140;-69
2023/05/13 10:19:28;;;;;;;7.18;3.88;;;;;;;;;;4999105;28;20069;-70
2023/05/13 10:21:56;;;;;;;8.80;3.83;;;;;;;;;;5014386;28;20143;-71
2023/05/13 10:24:23;;;;;;;9.95;3.72;;;;;;;;;;5013725;28;20060;-68
2023/05/13 10:26:51;;;;;;;6.78;3.35;;;;;;;;;;4989831;28;20081;-71
2023/05/13 10:29:17;;;;;;;7.20;3.38;;;;;;;;;;5017773;28;20084;-71
2023/05/13 10:31:44;;;;;;;6.55;3.33;;;;;;;;;;4997483;28;20083;-69
2023/05/13 10:34:15;;;;;;;9.07;3.17;;;;;;;;;;5016742;28;20057;-71
2023/05/13 10:36:49;;;;;;;6.25;3.33;;;;;;;;;;4987290;28;20135;-71
2023/05/13 10:39:31;;;;;;;7.10;3.05;;;;;;;;;;5000398;28;20049;-68
2023/05/13 10:42:19;;;;;;;5.55;2.92;;;;;;;;;;5014039;28;20190;-69
2023/05/13 10:44:46;;;;;;;7.43;3.13;;;;;;;;;;4991091;28;20049;-68
2023/05/13 10:47:13;;;;;;;5.80;3.15;;;;;;;;;;4985577;28;20324;-73
2023/05/13 10:49:49;;;;;;;11.57;3.45;;;;;;;;;;4999799;28;20054;-71
2023/05/13 10:52:16;;;;;;;7.20;2.72;;;;;;;;;;4995622;28;20216;-71
2023/05/13 10:54:43;;;;;;;7.90;3.38;;;;;;;;;;5011740;28;20049;-68
2023/05/13 10:57:09;;;;;;;6.82;3.10;;;;;;;;;;4989258;28;20064;-74
2023/05/13 10:59:37;;;;;;;6.78;3.08;;;;;;;;;;5019973;28;20045;-70
2023/05/13 11:02:22;;;;;;;7.53;3.47;;;;;;;;;;5000241;28;20049;-70
2023/05/13 11:05:00;;;;;;;7.43;3.20;;;;;;;;;;4986816;28;20085;-71
2023/05/13 11:07:29;;;;;;;5.28;2.65;;;;;;;;;;5013248;28;20077;-74
2023/05/13 11:10:00;;;;;;;8.57;3.25;;;;;;;;;;4889215;28;20086;-73
2023/05/13 11:12:27;;;;;;;8.70;3.63;;;;;;;;;;4949832;28;20078;-69
2023/05/13 11:14:56;;;;;;;8.05;4.32;;;;;;;;;;5012755;28;20053;-69
2023/05/13 11:17:38;;;;;;;10.88;3.80;;;;;;;;;;4993411;28;20058;-69
2023/05/13 11:20:34;;;;;;;7.72;3.50;;;;;;;;;;4965106;28;20053;-72
2023/05/13 11:23:02;;;;;;;9.35;3.20;;;;;;;;;;4996659;28;20057;-72
2023/05/13 11:25:35;;;;;;;8.82;3.15;;;;;;;;;;4991393;28;20096;-70
2023/05/13 11:28:03;;;;;;;6.30;3.25;;;;;;;;;;4967198;28;20144;-72
2023/05/13 11:30:32;;;;;;;8.05;3.03;;;;;;;;;;4955193;28;20050;-69
2023/05/13 11:33:11;;;;;;;5.63;2.97;;;;;;;;;;5015487;28;20181;-70
2023/05/13 11:35:38;;;;;;;5.47;3.10;;;;;;;;;;4989094;28;20045;-72
2023/05/13 11:38:09;;;;;;;6.53;3.03;;;;;;;;;;4989151;28;20053;-72
2023/05/13 11:40:37;;;;;;;5.05;2.80;;;;;;;;;;4963179;28;20352;-73
2023/05/13 11:43:04;;;;;;;;;;;;;;;;;;4955457;28;20149;-70
2023/05/13 11:45:32;;;;;;;8.50;3.17;;;;;;;;;;5004103;28;19925;-71
2023/05/13 11:48:02;;;;;;;6.10;3.10;;;;;;;;;;5021277;28;20049;-69
2023/05/13 11:50:31;;;;;;;6.10;2.92;;;;;;;;;;5003017;28;20308;-75
2023/05/13 11:53:00;;;;;;;9.77;3.28;;;;;;;;;;4999648;28;20061;-71
2023/05/13 11:55:31;;;;;;;5.47;3.13;;;;;;;;;;4988348;28;20056;-70
2023/05/13 11:58:00;;;;;;;5.18;2.75;;;;;;;;;;5039421;28;20090;-70
2023/05/13 12:00:29;;;;;;;5.72;3.00;;;;;;;;;;4943145;28;20075;-70
2023/05/13 12:02:55;;;;;;;;;;;;;;;;;;4956584;28;20050;-72
2023/05/13 12:05:22;;;;;;;5.38;2.80;;;;;;;;;;4947712;28;19929;-70
2023/05/13 12:07:49;;;;;;;5.95;2.92;;;;;;;;;;4990937;28;20061;-69
2023/05/13 12:10:23;;;;;;;5.60;3.03;;;;;;;;;;4957582;28;20056;-69
2023/05/13 12:13:09;;;;;;;5.47;2.58;;;;;;;;;;5001646;28;20184;-70
2023/05/13 12:15:35;;;;;;;5.65;3.03;;;;;;;;;;4988800;28;20275;-69
2023/05/13 12:18:11;;;;;;;5.82;2.80;;;;;;;;;;4984480;28;20132;-71
2023/05/13 12:20:37;;;;;;;5.45;2.92;;;;;;;;;;4940821;28;20072;-70
2023/05/13 12:23:05;;;;;;;8.95;3.10;;;;;;;;;;5019488;28;20061;-70
2023/05/13 12:25:37;;;;;;;5.78;2.70;;;;;;;;;;5006343;28;20049;-69
2023/05/13 12:28:06;;;;;;;7.43;3.05;;;;;;;;;;5002537;28;20061;-70
2023/05/13 12:30:37;;;;;;;5.18;2.88;;;;;;;;;;4987549;28;20140;-71
2023/05/13 12:33:04;;;;;;;5.85;3.00;;;;;;;;;;5021844;28;20060;-70
2023/05/13 12:35:36;;;;;;;4.57;2.63;;;;;;;;;;5012497;28;20131;-71
2023/05/13 12:38:03;;;;;;;6.95;2.53;;;;;;;;;;5020762;28;20109;-69
2023/05/13 12:40:30;;;;;;;4.80;2.45;;;;;;;;;;4980035;28;20177;-70
2023/05/13 12:42:57;;;;;;;7.80;3.10;;;;;;;;;;4997123;28;20061;-71
2023/05/13 12:45:26;;;;;;;5.80;2.92;;;;;;;;;;4995648;28;20038;-70
2023/05/13 12:47:54;;;;;;;7.82;2.60;;;;;;;;;;4999185;28;20084;-70
2023/05/13 12:50:21;;;;;;;5.05;2.72;;;;;;;;;;5005997;28;20062;-70
2023/05/13 12:52:50;;;;;;;7.63;3.15;;;;;;;;;;5014708;28;20069;-68
2023/05/13 12:55:17;;;;;;;6.32;2.90;;;;;;;;;;5017695;28;20053;-68
2023/05/13 12:57:44;;;;;;;5.25;2.83;;;;;;;;;;5009529;28;20092;-69
2023/05/13 13:00:14;;;;;;;4.95;2.50;;;;;;;;;;5003419;28;20045;-68
2023/05/13 13:02:40;;;;;;;5.50;2.88;;;;;;;;;;5016094;28;20060;-69
2023/05/13 13:07:57;;;;;;;8.13;2.53;;;;;;;;;;5014169;28;20072;-69
2023/05/13 13:10:25;;;;;;;5.88;2.80;;;;;;;;;;4979840;28;20081;-68
2023/05/13 13:12:51;;;;;;;7.07;2.63;;;;;;;;;;5015679;28;20064;-67
2023/05/13 13:15:22;;;;;;;5.25;2.53;;;;;;;;;;5017092;28;20072;-68
2023/05/13 13:17:50;;;;;;;6.32;3.05;;;;;;;;;;5014281;28;20153;-67
2023/05/13 13:20:20;;;;;;;8.07;3.03;;;;;;;;;;4980295;28;20064;-67
2023/05/13 13:22:47;;;;;;;4.95;2.80;;;;;;;;;;5015927;28;20088;-68
2023/05/13 13:25:17;;;;;;;6.20;2.53;;;;;;;;;;5001187;28;20053;-68
2023/05/13 13:27:44;;;;;;;5.20;2.70;;;;;;;;;;5001431;28;20061;-68
2023/05/13 13:30:16;;;;;;;8.10;2.90;;;;;;;;;;5013976;28;20053;-67
2023/05/13 13:32:44;;;;;;;4.70;2.65;;;;;;;;;;4999552;28;20118;-69
2023/05/13 13:35:11;;;;;;;6.07;2.72;;;;;;;;;;5016705;28;20113;-68
2023/05/13 13:37:39;;;;;;;5.03;2.60;;;;;;;;;;5002888;28;20099;-69
2023/05/13 13:40:09;;;;;;;5.43;2.83;;;;;;;;;;4972037;28;20163;-68
2023/05/13 13:42:35;;;;;;;10.13;2.70;;;;;;;;;;5002075;28;20065;-68
2023/05/13 13:45:06;;;;;;;4.47;2.80;;;;;;;;;;5015100;28;20213;-68
2023/05/13 13:47:33;;;;;;;4.85;2.58;;;;;;;;;;4993655;28;20097;-69
2023/05/13 13:50:00;;;;;;;6.53;2.77;;;;;;;;;;4946324;28;20058;-69
2023/05/13 13:52:27;;;;;;;5.65;2.40;;;;;;;;;;5013602;28;20307;-69
2023/05/13 13:54:57;;;;;;;5.75;2.90;;;;;;;;;;5016336;28;20061;-68
2023/05/13 13:57:23;;;;;;;5.22;2.50;;;;;;;;;;4995468;28;20092;-71
2023/05/13 13:59:50;;;;;;;5.80;2.60;;;;;;;;;;4994390;28;20148;-68
2023/05/13 14:02:22;;;;;;;3.85;2.20;;;;;;;;;;5018022;28;20061;-68
2023/05/13 14:04:52;;;;;;;6.97;2.65;;;;;;;;;;4998794;28;20053;-67
2023/05/13 14:07:21;;;;;;;3.70;2.30;;;;;;;;;;4998221;28;20065;-68
2023/05/13 14:09:51;;;;;;;5.00;2.30;;;;;;;;;;4963582;28;20049;-69
2023/05/13 14:12:25;;;;;;;4.47;2.30;;;;;;;;;;4999599;28;20160;-68
2023/05/13 14:14:51;;;;;;;5.78;2.33;;;;;;;;;;5000252;28;20053;-67
2023/05/13 14:17:18;;;;;;;4.35;2.15;;;;;;;;;;5002775;28;20109;-69
2023/05/13 14:19:44;;;;;;;4.53;2.30;;;;;;;;;;4995406;28;20064;-67
2023/05/13 14:22:11;;;;;;;6.10;2.35;;;;;;;;;;4996914;28;20080;-67
2023/05/13 14:24:37;;;;;;;4.70;2.35;;;;;;;;;;4999798;28;20083;-67
2023/05/13 14:27:04;;;;;;;4.28;2.28;;;;;;;;;;4996942;28;20089;-68
2023/05/13 14:29:32;;;;;;;5.38;2.17;;;;;;;;;;4984887;28;20084;-67
2023/05/13 14:32:01;;;;;;;4.03;2.10;;;;;;;;;;4980913;28;20107;-67
2023/05/13 14:34:29;;;;;;;7.03;2.40;;;;;;;;;;5003959;28;20068;-67
2023/05/13 14:36:56;;;;;;;6.82;2.53;;;;;;;;;;4996954;28;20056;-68
2023/05/13 14:39:22;;;;;;;6.47;2.42;;;;;;;;;;5013257;28;20061;-69
2023/05/13 14:41:49;;;;;;;6.30;2.08;;;;;;;;;;5010172;28;20057;-68
2023/05/13 14:44:15;;;;;;;3.97;2.20;;;;;;;;;;5000269;28;20061;-67
2023/05/13 14:46:48;;;;;;;4.18;2.10;;;;;;;;;;5013827;28;20258;-67
2023/05/13 14:49:18;;;;;;;6.45;2.40;;;;;;;;;;5014593;28;20061;-67